createdAt,value
2023-01-30T00:03:34.208Z,0.6
2023-01-30T00:13:34.217Z,0.7
2023-01-30T00:23:34.249Z,0.6
2023-01-30T00:33:34.237Z,0.7
2023-01-30T00:43:34.216Z,0.6
2023-01-30T00:53:34.174Z,0.7
2023-01-30T01:03:34.300Z,0.6
2023-01-30T01:13:34.154Z,0.5
2023-01-30T01:23:34.163Z,0.6
2023-01-30T01:33:34.246Z,0.6
2023-01-30T01:43:34.150Z,0.6
2023-01-30T01:53:34.137Z,0.6
2023-01-30T02:03:34.160Z,0.6
2023-01-30T02:13:34.121Z,0.7
2023-01-30T02:23:34.127Z,0.7
2023-01-30T02:33:34.123Z,0.7
2023-01-30T02:43:34.139Z,0.7
2023-01-30T02:53:34.084Z,0.7
2023-01-30T03:03:34.096Z,0.7
2023-01-30T03:13:34.083Z,0.6
2023-01-30T03:23:34.056Z,0.7
2023-01-30T03:33:34.081Z,0.7
2023-01-30T03:43:34.063Z,0.7
2023-01-30T03:53:34.035Z,0.7
2023-01-30T04:03:34.070Z,0.7
2023-01-30T04:13:34.033Z,0.6
2023-01-30T04:23:34.021Z,0.6
2023-01-30T04:33:34.057Z,0.7
2023-01-30T04:43:34.039Z,0.8
2023-01-30T04:53:33.971Z,0.8
2023-01-30T05:03:33.982Z,0.8
2023-01-30T05:13:34.006Z,0.6
2023-01-30T05:23:33.950Z,0.7
2023-01-30T05:33:33.976Z,0.7
2023-01-30T05:43:33.952Z,0.7
2023-01-30T05:53:33.935Z,0.7
2023-01-30T06:03:34.007Z,0.7
2023-01-30T06:13:33.903Z,0.7
2023-01-30T06:23:33.915Z,0.8
2023-01-30T06:33:33.934Z,0.8
2023-01-30T06:43:33.931Z,0.8
2023-01-30T06:53:33.906Z,0.9
2023-01-30T07:03:33.895Z,1
2023-01-30T07:13:33.883Z,1
2023-01-30T07:23:33.864Z,1
2023-01-30T07:33:33.885Z,1.1
2023-01-30T07:43:33.870Z,1.1
2023-01-30T07:53:33.843Z,1.2
2023-01-30T08:03:33.868Z,1.2
2023-01-30T08:13:33.839Z,1.3
2023-01-30T08:23:33.811Z,1.4
2023-01-30T08:33:33.797Z,1.5
2023-01-30T08:43:33.817Z,1.7
2023-01-30T08:53:33.771Z,1.9
2023-01-30T09:03:33.797Z,1.9
2023-01-30T09:13:33.792Z,2.1
2023-01-30T09:23:33.782Z,2.4
2023-01-30T09:33:33.792Z,2.7
2023-01-30T09:43:33.737Z,2.9
2023-01-30T09:53:33.721Z,3.3
2023-01-30T10:03:33.812Z,3.8
2023-01-30T10:13:33.747Z,4.2
2023-01-30T10:23:33.688Z,4.5
2023-01-30T10:33:33.681Z,4.6
2023-01-30T10:43:33.694Z,5
2023-01-30T10:53:33.649Z,5.5
2023-01-30T11:03:33.684Z,6.6
2023-01-30T11:13:33.655Z,7.7
2023-01-30T11:23:33.605Z,8.4
2023-01-30T11:33:33.618Z,8.1
2023-01-30T11:43:33.608Z,8.9
2023-01-30T11:53:33.551Z,9.1
2023-01-30T12:03:33.597Z,9.5
2023-01-30T12:13:33.580Z,10.2
2023-01-30T12:23:33.519Z,9.4
2023-01-30T12:33:33.549Z,9.8
2023-01-30T12:43:33.511Z,10
2023-01-30T12:53:33.475Z,9.2
2023-01-30T13:03:33.528Z,8.7
2023-01-30T13:13:33.481Z,8.8
2023-01-30T13:23:33.418Z,9.1
2023-01-30T13:33:33.449Z,9.5
2023-01-30T13:43:33.448Z,9.5
2023-01-30T13:53:33.385Z,9.3
2023-01-30T14:03:33.398Z,9.4
2023-01-30T14:13:33.377Z,9.5
2023-01-30T14:23:33.344Z,9.6
2023-01-30T14:33:33.351Z,9.6
2023-01-30T14:43:33.335Z,9.2
2023-01-30T14:53:33.277Z,8.9
2023-01-30T15:03:33.321Z,8.4
2023-01-30T15:13:33.294Z,8.1
2023-01-30T15:23:33.247Z,7.7
2023-01-30T15:33:33.255Z,7
2023-01-30T15:43:33.241Z,6.3
2023-01-30T15:53:33.201Z,5.6
2023-01-30T16:03:33.220Z,5.1
2023-01-30T16:13:33.363Z,4.6
2023-01-30T16:23:33.165Z,4.2
2023-01-30T16:33:33.183Z,3.8
2023-01-30T16:43:33.176Z,3.6
2023-01-30T16:53:33.124Z,3.4
2023-01-30T17:03:33.189Z,3.2
2023-01-30T17:13:33.170Z,3.1
2023-01-30T17:23:33.683Z,2.8
2023-01-30T17:33:33.125Z,2.6
2023-01-30T17:43:33.119Z,2.4
2023-01-30T17:53:33.052Z,2.1
2023-01-30T18:03:33.086Z,1.9
2023-01-30T18:13:34.975Z,1.4
2023-01-30T18:23:33.033Z,1.3
2023-01-30T18:33:33.069Z,1.2
2023-01-30T18:43:33.044Z,1
2023-01-30T18:53:33.000Z,0.8
2023-01-30T19:03:33.038Z,0.6
2023-01-30T19:13:33.027Z,0.4
2023-01-30T19:23:32.993Z,0.1
2023-01-30T19:33:33.007Z,0
2023-01-30T19:43:33.012Z,-0.3
2023-01-30T19:53:32.971Z,-0.5
2023-01-30T20:03:32.946Z,-0.6
2023-01-30T20:13:32.976Z,-0.7
2023-01-30T20:23:32.941Z,-0.8
2023-01-30T20:33:32.982Z,-0.8
2023-01-30T20:43:32.913Z,-1
2023-01-30T20:53:32.921Z,-1.1
2023-01-30T21:03:32.946Z,-1
2023-01-30T21:13:32.930Z,-1.1
2023-01-30T21:23:32.925Z,-1.1
2023-01-30T21:33:32.944Z,-1.1
2023-01-30T21:43:32.917Z,-1.2
2023-01-30T21:53:32.906Z,-1.3
2023-01-30T22:03:33.011Z,-1.3
2023-01-30T22:13:32.904Z,-1.2
2023-01-30T22:23:32.872Z,-1.2
2023-01-30T22:33:32.905Z,-1.1
2023-01-30T22:43:32.893Z,-1.2
2023-01-30T22:53:32.847Z,-1.1
2023-01-30T23:03:32.895Z,-1.3
2023-01-30T23:13:32.857Z,-1.4
2023-01-30T23:23:32.821Z,-1.4
2023-01-30T23:33:32.865Z,-1.5
2023-01-30T23:43:32.838Z,-1.3
2023-01-30T23:53:32.808Z,-1.4
